• Join FlightAware (Why Join?)
  • Login
  • US Flag 
10:27PM EST


 

Airport Tracker/Info


-or-


 

Live Flight TrackerFlight Track Log ✈ SWA2224 ✈ 04-May-2013 ✈ KSTL - KSAT

Flight Track Log - Related Links

Times and Time Zones

All times are in EDT time to prevent confusion due to time zone crossing. See the SWA2224 flight status page for this flight to view local times or setup timezone preferences in your user account.

Time Position Orientation Groundspeed Altitude Reporting Facility
EDT Latitude Longitude Course Direction KTS MPH feet Rate Location/Type
06:17PM 38.7000 -90.2833 235° Southwest 203 234 3,100  Level Gateway (St. Louis) TRACON
06:18PM 38.6847 -90.2867 190° South 218 251 4,400 2,460 Climbing Kansas City Center
06:19PM 38.6414 -90.3600 233° Southwest 244 281 6,600 2,580 Climbing Kansas City Center
06:20PM 38.5944 -90.4464 235° Southwest 280 322 9,800 2,580 Climbing Kansas City Center
06:21PM 38.5400 -90.5433 234° Southwest 329 379 11,900 2,580 Climbing Kansas City Center
06:22PM 38.4775 -90.6575 235° Southwest 368 423 15,100 2,880 Climbing Kansas City Center
06:23PM 38.3608 -90.8207 235° Southwest  Level FlightAware Approximate
06:23PM 38.4194 -90.7603 234° Southwest 376 433 17,900  Level Kansas City Center
06:24PM 38.3558 -90.8739 234° Southwest 389 448 20,300 2,100 Climbing Kansas City Center
06:25PM 38.2881 -90.9881 233° Southwest 402 463 22,300 1,800 Climbing Kansas City Center
06:26PM 38.1925 -91.0711 214° Southwest 413 475 24,100 1,860 Climbing Kansas City Center
06:27PM 38.0883 -91.1631 215° Southwest 419 482 26,200 1,800 Climbing Kansas City Center
06:28PM 37.9928 -91.2569 218° Southwest 429 494 27,800 1,440 Climbing Kansas City Center
06:29PM 37.9022 -91.3761 226° Southwest 460 529 29,200 1,380 Climbing Kansas City Center
06:30PM 37.8122 -91.4983 227° Southwest 468 539 30,700 1,560 Climbing Kansas City Center
06:31PM 37.7197 -91.6206 226° Southwest 473 544 32,400 1,680 Climbing Kansas City Center
06:32PM 37.6300 -91.7372 226° Southwest 465 535 34,200 1,560 Climbing Kansas City Center
06:33PM 37.5214 -91.8692 224° Southwest 451 519 35,700 840 Climbing Kansas City Center
06:34PM 37.4281 -91.9797 223° Southwest 453 521 36,000 120 Climbing Kansas City Center
06:35PM 37.3342 -92.0908 223° Southwest 458 527 36,000  Level Kansas City Center
06:36PM 37.2383 -92.2006 222° Southwest 460 529 36,000  Level Kansas City Center
06:37PM 37.1492 -92.3158 226° Southwest 454 522 36,000  Level Kansas City Center
06:38PM 37.0686 -92.4425 231° Southwest 456 525 36,000  Level Kansas City Center
06:39PM 36.9878 -92.5681 231° Southwest 458 527 36,000  Level Kansas City Center
06:40PM 36.8942 -92.6731 222° Southwest 455 524 36,000  Level Kansas City Center
06:41PM 36.7978 -92.7747 220° Southwest 453 521 36,000  Level Kansas City Center
06:42PM 36.7044 -92.8803 222° Southwest 455 524 36,000  Level Memphis Center
06:43PM 36.6086 -92.9806 220° Southwest 450 518 36,000  Level Memphis Center
06:44PM 36.5144 -93.0861 222° Southwest 450 518 36,000  Level Memphis Center
06:45PM 36.4183 -93.1858 220° Southwest 450 518 36,000  Level Memphis Center
06:46PM 36.3244 -93.2858 221° Southwest 450 518 36,000  Level Memphis Center
06:47PM 36.2303 -93.3878 221° Southwest 450 518 36,000  Level Memphis Center
06:48PM 36.1319 -93.4897 220° Southwest 450 518 36,000  Level Memphis Center
06:49PM 36.0375 -93.5939 222° Southwest 450 518 36,000  Level Memphis Center
06:50PM 35.9411 -93.6925 220° Southwest 450 518 36,000  Level Memphis Center
06:51PM 35.8444 -93.7936 220° Southwest 450 518 36,000  Level Memphis Center
06:52PM 35.7519 -93.8922 221° Southwest 445 512 36,000  Level Memphis Center
06:53PM 35.6575 -93.9878 219° Southwest 445 512 36,000  Level Memphis Center
06:54PM 35.5669 -94.0858 221° Southwest 445 512 36,000  Level Memphis Center
06:55PM 35.4703 -94.1836 219° Southwest 450 518 36,000  Level Memphis Center
06:56PM 35.3775 -94.2786 220° Southwest 450 518 36,000  Level Memphis Center
06:58PM 35.1769 -94.4342 212° Southwest 447 514 36,000  Level Fort Worth Center
06:59PM 35.0725 -94.5142 212° Southwest 453 521 36,000  Level Fort Worth Center
07:00PM 34.9639 -94.5964 212° Southwest 458 527 36,000 -420 Level Fort Worth Center
07:01PM 34.8675 -94.6728 213° Southwest 464 534 35,200 -900 Descending Fort Worth Center
07:02PM 34.7628 -94.7494 211° Southwest 464 534 34,300 -1,440 Descending Fort Worth Center
07:03PM 34.6600 -94.8308 213° Southwest 453 521 32,400 -1,200 Descending Fort Worth Center
07:04PM 34.5572 -94.9072 211° Southwest 447 514 32,000 -240 Descending Fort Worth Center
07:05PM 34.4503 -94.9858 211° Southwest 452 520 32,000  Level Fort Worth Center
07:06PM 34.3414 -95.0669 212° Southwest 452 520 32,000 -480 Level Fort Worth Center
07:07PM 34.2406 -95.1425 212° Southwest 452 520 31,100 -900 Descending Fort Worth Center
07:08PM 34.1417 -95.2178 212° Southwest 440 506 30,200 -600 Descending Fort Worth Center
07:09PM 34.0408 -95.2931 212° Southwest 435 501 30,000 -120 Descending Fort Worth Center
07:10PM 33.9356 -95.3708 212° Southwest 435 501 30,000  Level Fort Worth Center
07:11PM 33.8303 -95.4456 211° Southwest 435 501 30,000  Level Fort Worth Center
07:12PM 33.7292 -95.5203 212° Southwest 435 501 30,000  Level Fort Worth Center
07:13PM 33.6258 -95.5950 211° Southwest 435 501 30,000 -960 Level Fort Worth Center
07:14PM 33.5186 -95.6744 212° Southwest 429 494 28,100 -1,020 Descending Fort Worth Center
07:15PM 33.4089 -95.7511 210° Southwest 444 511 28,000 -60 Descending Fort Worth Center
07:16PM 33.3014 -95.8303 212° Southwest 454 522 28,000  Level Fort Worth Center
07:17PM 33.1981 -95.9042 211° Southwest 449 517 28,000  Level Fort Worth Center
07:18PM 33.0925 -95.9828 212° Southwest 449 517 28,000  Level Fort Worth Center
07:19PM 32.9889 -96.0561 211° Southwest 449 517 28,000  Level Fort Worth Center
07:20PM 32.8936 -96.1244 211° Southwest 449 517 28,000  Level Fort Worth Center
07:21PM 32.7756 -96.2103 211° Southwest 449 517 28,000  Level Fort Worth Center
07:22PM 32.6800 -96.2781 211° Southwest 449 517 28,000  Level Fort Worth Center
07:23PM 32.5639 -96.3608 211° Southwest 449 517 28,000  Level Fort Worth Center
07:24PM 32.4683 -96.4283 211° Southwest 449 517 28,000  Level Fort Worth Center
07:25PM 32.3500 -96.5108 211° Southwest 449 517 28,000  Level Fort Worth Center
07:26PM 32.2564 -96.5756 210° Southwest 444 511 28,000  Level Fort Worth Center
07:27PM 32.1400 -96.6600 212° Southwest 450 518 28,000  Level Fort Worth Center
07:28PM 32.0342 -96.7322 210° Southwest 450 518 28,000  Level Fort Worth Center
07:29PM 31.9300 -96.8064 211° Southwest 445 512 28,000  Level Fort Worth Center
07:30PM 31.8258 -96.8756 209° Southwest 445 512 28,000  Level Fort Worth Center
07:31PM 31.7197 -96.9494 211° Southwest 445 512 28,000  Level Fort Worth Center
07:32PM 31.6178 -97.0231 212° Southwest 445 512 28,000  Level Fort Worth Center
07:33PM 31.5464 -97.0714 210° Southwest 434 499 28,000  Level Houston Center
07:34PM 31.4292 -97.1228 201° Southwest 446 513 28,000  Level Houston Center
07:35PM 31.3131 -97.1756 201° Southwest 444 511 28,000  Level Houston Center
07:36PM 31.2000 -97.2322 203° Southwest 439 505 28,000  Level Houston Center
07:37PM 31.0869 -97.2883 203° Southwest 439 505 28,000 -120 Level Houston Center
07:38PM 30.9731 -97.3425 202° Southwest 442 509 27,800 -720 Descending Houston Center
07:39PM 30.8444 -97.4058 203° Southwest 441 507 26,600 -1,080 Descending Houston Center
07:40PM 30.7336 -97.4592 202° Southwest 432 497 25,600 -1,020 Descending Houston Center
07:41PM 30.6239 -97.5125 203° Southwest 425 489 24,500 -1,020 Descending Houston Center
07:42PM 30.5142 -97.5658 203° Southwest 423 487 23,600 -960 Descending Houston Center
07:43PM 30.4036 -97.6186 202° Southwest 425 489 22,600 -1,080 Descending Houston Center
07:44PM 30.2942 -97.6717 203° Southwest 424 488 21,500 -1,440 Descending Houston Center
07:45PM 30.1914 -97.7217 203° Southwest 401 461 19,700 -2,160 Descending Houston Center
07:46PM 30.0806 -97.7744 202° Southwest 368 423 17,100 -2,340 Descending Houston Center
07:47PM 29.9872 -97.8192 203° Southwest 354 407 15,000 -2,040 Descending Houston Center
07:48PM 29.8997 -97.8639 204° Southwest 346 398 13,000 -1,860 Descending Houston Center
07:49PM 29.8606 -97.9461 241° Southwest 310 357 11,500 -1,560 Descending Houston Center
07:50PM 29.8267 -98.0297 245° Southwest 290 334 10,100 -1,620 Descending Houston Center
07:51PM 29.7942 -98.1086 245° Southwest 263 303 8,300 -1,920 Descending Houston Center
07:52PM 29.7542 -98.1736 235° Southwest 275 316 6,500 -1,920 Descending Houston Center
07:52PM 29.7333 -98.1886 212° Southwest 285 328 6,000 -540 Descending Houston Center
07:53PM 29.6894 -98.2225 214° Southwest 280 322 6,000  Level Houston Center
07:53PM 29.6700 -98.2369 213° Southwest 274 315 6,000 -720 Level Houston Center
07:54PM 29.6089 -98.2828 213° Southwest 262 302 5,100 -600 Descending Houston Center
07:55PM 29.5597 -98.3200 213° Southwest 218 251 4,900 -780 Descending Houston Center
07:56PM 29.5231 -98.3533 218° Southwest 144 166 3,700 -1,260 Descending Houston Center
07:57PM 29.4986 -98.3853 229° Southwest 128 147 2,500 -1,200 Descending Houston Center
07:58PM 29.4956 -98.3953 251° West 140 161 2,300 -720 Descending Houston Center
07:58PM 29.5008 -98.4306 280° West 146 168 1,800 -720 Descending Houston Center
07:59PM 29.5067 -98.4392 308° West 150 173 1,600 -780 Descending Houston Center
08:00PM 29.5322 -98.4706 313° West 146 168 800 -840 Descending Houston Center